Terminal Aerodrome Forecast
Issued by NWS Corpus Christi, TX

Current Version | Previous Version | Text Only | Print | Product List | Glossary On
Versions: 1 2 3 4 5 6 7 8 9 10 11 12 13 14 15 16
000
FTUS44 KCRP 292300
TAFVCT
TAF
KVCT 292328Z 3000/3024 09005KT P6SM FEW030 SCT250
     FM300300 05005KT 5SM BR SCT006 BKN025
      TEMPO 3004/3008 2SM BR OVC003
     FM300800 02014G20KT P6SM OVC025
     FM301600 05012KT P6SM SCT020 OVC035
     FM302000 07009KT P6SM BKN018 OVC030=

USA.gov is the U.S. government's official web portal to all federal, state and local government web resources and services.